Time;durP1;ratioP1;P1;durP2;ratioP2;P2;SDS_P1;SDS_P2;PMS_P1;PMS_P2;Temp;Humidity;BMP_temperature;BMP_pressure;BME280_temperature;BME280_humidity;BME280_pressure;Samples;Min_cycle;Max_cycle;Signal;HPM_P1;HPM_P2
2024/03/13 00:05:30;;;;;;;0.30;0.30;;;;;;;;;;1059138;23;20063;-80
2024/03/13 00:06:01;;;;;;;0.10;0.10;;;;;;;;;;1044388;28;20528;-80
2024/03/13 00:06:31;;;;;;;0.10;0.10;;;;;;;;;;1043656;28;20032;-81
2024/03/13 00:07:01;;;;;;;0.20;0.20;;;;;;;;;;1044236;28;20530;-80
2024/03/13 00:07:32;;;;;;;0.10;0.10;;;;;;;;;;1044065;28;20498;-81
2024/03/13 00:08:04;;;;;;;0.25;0.20;;;;;;;;;;1043477;28;20028;-80
2024/03/13 00:08:35;;;;;;;0.20;0.20;;;;;;;;;;1040316;28;20086;-80
2024/03/13 00:09:06;;;;;;;0.10;0.10;;;;;;;;;;1035593;28;20013;-80
2024/03/13 00:09:46;;;;;;;0.00;0.00;;;;;;;;;;1036186;28;20037;-80
2024/03/13 00:10:18;;;;;;;0.10;0.10;;;;;;;;;;1039457;28;20156;-80
2024/03/13 00:10:51;;;;;;;0.10;0.10;;;;;;;;;;1042673;28;20057;-80
2024/03/13 00:11:22;;;;;;;0.10;0.10;;;;;;;;;;1040887;28;20063;-80
2024/03/13 00:11:52;;;;;;;0.10;0.10;;;;;;;;;;1041723;28;20040;-80
2024/03/13 00:26:58;;;;;;;0.10;0.10;;;;;;;;;;1222329;23;19911;-78
2024/03/13 00:29:29;;;;;;;0.10;0.10;;;;;;;;;;1067108;23;20053;-77
2024/03/13 00:29:59;;;;;;;0.00;0.00;;;;;;;;;;1042975;28;20029;-78
2024/03/13 00:37:49;;;;;;;;;;;;;;;;;;1140905;23;20000;-79
2024/03/13 00:38:20;;;;;;;1.85;1.73;;;;;;;;;;1044126;28;20315;-79
2024/03/13 00:42:13;;;;;;;0.10;0.10;;;;;;;;;;1062036;23;20049;-79
2024/03/13 00:42:44;;;;;;;0.20;0.20;;;;;;;;;;1047304;28;20455;-80
2024/03/13 00:43:14;;;;;;;0.00;0.00;;;;;;;;;;1048232;28;20025;-80
2024/03/13 00:43:45;;;;;;;0.20;0.20;;;;;;;;;;1048562;28;20021;-80
2024/03/13 00:44:15;;;;;;;0.52;0.47;;;;;;;;;;1048280;28;20016;-80
2024/03/13 00:44:46;;;;;;;0.13;0.13;;;;;;;;;;1048977;28;20043;-80
2024/03/13 01:14:28;;;;;;;0.10;0.10;;;;;;;;;;1231602;22;19904;-79
2024/03/13 01:16:19;;;;;;;0.10;0.10;;;;;;;;;;1213854;23;19904;-79
2024/03/13 01:16:52;;;;;;;0.10;0.10;;;;;;;;;;1053739;23;20111;-80
2024/03/13 01:23:23;;;;;;;;;;;;;;;;;;1141191;22;19996;-78
2024/03/13 01:54:52;;;;;;;0.10;0.10;;;;;;;;;;1043036;28;20025;-78
2024/03/13 01:55:28;;;;;;;0.32;0.22;;;;;;;;;;1042716;28;20062;-78
2024/03/13 01:56:05;;;;;;;0.10;0.10;;;;;;;;;;1043344;28;20515;-78
2024/03/13 01:56:37;;;;;;;0.20;0.20;;;;;;;;;;1041248;28;20087;-79
2024/03/13 01:58:07;;;;;;;;;;;;;;;;;;1223408;23;20000;-79
2024/03/13 01:58:40;;;;;;;;;;;;;;;;;;1042770;28;19927;-79
2024/03/13 01:59:20;;;;;;;0.10;0.10;;;;;;;;;;1041487;28;19909;-79
2024/03/13 02:05:11;;;;;;;0.20;0.20;;;;;;;;;;944003;22;20041;-82
2024/03/13 02:05:42;;;;;;;0.10;0.10;;;;;;;;;;1043030;28;20544;-80
2024/03/13 02:08:44;;;;;;;0.20;0.20;;;;;;;;;;1218428;23;20255;-75
2024/03/13 02:09:15;;;;;;;0.10;0.10;;;;;;;;;;1051904;23;20056;-77
2024/03/13 02:09:48;;;;;;;0.38;0.38;;;;;;;;;;1048315;28;20464;-77
2024/03/13 02:10:18;;;;;;;0.10;0.10;;;;;;;;;;1046702;28;20476;-76
2024/03/13 02:10:49;;;;;;;0.10;0.10;;;;;;;;;;1048797;28;20108;-79
2024/03/13 02:11:20;;;;;;;0.95;0.60;;;;;;;;;;1047866;28;20036;-75
2024/03/13 02:11:51;;;;;;;0.65;0.60;;;;;;;;;;1044495;28;20016;-77
2024/03/13 02:12:22;;;;;;;0.38;0.38;;;;;;;;;;1038563;28;20074;-77
2024/03/13 02:13:11;;;;;;;0.10;0.10;;;;;;;;;;1042150;28;20074;-77
2024/03/13 02:13:42;;;;;;;0.10;0.10;;;;;;;;;;1036116;28;20033;-78
2024/03/13 02:14:14;;;;;;;0.13;0.13;;;;;;;;;;1037223;28;20404;-75
2024/03/13 02:14:44;;;;;;;0.10;0.10;;;;;;;;;;1040783;28;20056;-76
2024/03/13 02:15:15;;;;;;;1.02;1.02;;;;;;;;;;1044178;28;20029;-76
2024/03/13 02:15:46;;;;;;;0.10;0.10;;;;;;;;;;1047155;28;20119;-77
2024/03/13 02:16:16;;;;;;;0.10;0.10;;;;;;;;;;1049156;28;20073;-76
2024/03/13 02:16:52;;;;;;;0.30;0.30;;;;;;;;;;1049642;28;20079;-79
2024/03/13 02:17:23;;;;;;;0.13;0.13;;;;;;;;;;1050485;28;20139;-77
2024/03/13 02:17:54;;;;;;;0.88;0.60;;;;;;;;;;1048183;28;20447;-77
2024/03/13 02:18:29;;;;;;;0.30;0.30;;;;;;;;;;1047585;28;20028;-77
2024/03/13 02:19:01;;;;;;;0.68;0.63;;;;;;;;;;1041408;28;20059;-77
2024/03/13 02:19:36;;;;;;;0.10;0.10;;;;;;;;;;1041804;28;20013;-77
2024/03/13 02:20:09;;;;;;;0.38;0.30;;;;;;;;;;1042430;28;20024;-77
2024/03/13 02:20:40;;;;;;;0.17;0.17;;;;;;;;;;1047429;28;20025;-77
2024/03/13 02:21:10;;;;;;;0.22;0.22;;;;;;;;;;1046658;28;20020;-77
2024/03/13 02:21:41;;;;;;;0.20;0.20;;;;;;;;;;1046619;28;20033;-77
2024/03/13 02:22:13;;;;;;;0.10;0.10;;;;;;;;;;1047720;28;20028;-78
2024/03/13 02:22:45;;;;;;;0.32;0.20;;;;;;;;;;1041280;28;20023;-78
2024/03/13 02:23:22;;;;;;;0.10;0.10;;;;;;;;;;1043187;28;20029;-79
2024/03/13 02:23:55;;;;;;;0.30;0.25;;;;;;;;;;1043620;28;20455;-76
2024/03/13 02:24:26;;;;;;;0.10;0.10;;;;;;;;;;1047292;28;20028;-77
2024/03/13 02:24:56;;;;;;;0.28;0.28;;;;;;;;;;1043503;28;20092;-77
2024/03/13 02:25:27;;;;;;;0.20;0.20;;;;;;;;;;1044567;28;20036;-78
2024/03/13 02:25:58;;;;;;;2.20;1.00;;;;;;;;;;1043208;28;20025;-81
2024/03/13 02:26:29;;;;;;;0.10;0.10;;;;;;;;;;1042073;28;20145;-80
2024/03/13 02:27:00;;;;;;;0.20;0.20;;;;;;;;;;1047579;28;20466;-80
2024/03/13 02:28:41;;;;;;;;;;;;;;;;;;1229724;23;20299;-78
2024/03/13 02:29:13;;;;;;;0.10;0.10;;;;;;;;;;1041779;28;20019;-79
2024/03/13 02:29:47;;;;;;;0.25;0.25;;;;;;;;;;1041790;28;20037;-79
2024/03/13 02:30:18;;;;;;;0.20;0.20;;;;;;;;;;1042777;28;20027;-80
2024/03/13 02:30:50;;;;;;;0.00;0.00;;;;;;;;;;1038233;28;20104;-80
2024/03/13 02:31:22;;;;;;;0.63;0.40;;;;;;;;;;1038891;28;20025;-78
2024/03/13 02:31:53;;;;;;;0.10;0.05;;;;;;;;;;1040274;28;20033;-79
2024/03/13 02:32:23;;;;;;;0.10;0.10;;;;;;;;;;1037546;28;20052;-78
2024/03/13 02:32:57;;;;;;;0.10;0.10;;;;;;;;;;1038347;28;20436;-80
2024/03/13 02:33:29;;;;;;;0.38;0.38;;;;;;;;;;1038316;28;20049;-79
2024/03/13 02:33:59;;;;;;;0.28;0.28;;;;;;;;;;1037454;28;20022;-79
2024/03/13 02:34:56;;;;;;;0.95;0.93;;;;;;;;;;1043897;28;20033;-82
2024/03/13 02:35:27;;;;;;;0.35;0.35;;;;;;;;;;1031295;28;20429;-79
2024/03/13 02:35:59;;;;;;;3.47;0.85;;;;;;;;;;1039078;28;20024;-79
2024/03/13 02:36:32;;;;;;;0.65;0.57;;;;;;;;;;1041816;28;20380;-80
2024/03/13 02:38:17;;;;;;;0.63;0.55;;;;;;;;;;1048077;22;20049;-78
2024/03/13 02:38:49;;;;;;;0.10;0.10;;;;;;;;;;1042136;28;20033;-80
2024/03/13 02:39:20;;;;;;;0.30;0.30;;;;;;;;;;1041788;28;20033;-79
2024/03/13 02:39:50;;;;;;;0.90;0.43;;;;;;;;;;1044244;28;20021;-79
2024/03/13 02:40:22;;;;;;;0.20;0.20;;;;;;;;;;1042959;28;20388;-80
2024/03/13 02:40:53;;;;;;;0.65;0.65;;;;;;;;;;1043006;28;20028;-79
2024/03/13 02:41:24;;;;;;;0.47;0.45;;;;;;;;;;1041705;28;20027;-78
2024/03/13 02:41:54;;;;;;;0.43;0.43;;;;;;;;;;1033741;28;20030;-77
2024/03/13 02:42:25;;;;;;;0.17;0.17;;;;;;;;;;1033060;28;20028;-79
2024/03/13 02:42:55;;;;;;;0.17;0.17;;;;;;;;;;1033597;28;20039;-76
2024/03/13 02:43:26;;;;;;;0.28;0.28;;;;;;;;;;1037809;28;20049;-78
2024/03/13 02:43:58;;;;;;;0.20;0.20;;;;;;;;;;1034856;28;20038;-79
2024/03/13 02:45:09;;;;;;;;;;;;;;;;;;1133410;23;20077;-81
2024/03/13 02:50:54;;;;;;;0.10;0.10;;;;;;;;;;1150623;22;19903;-80
2024/03/13 02:51:24;;;;;;;0.17;0.17;;;;;;;;;;1043973;28;20120;-80
2024/03/13 02:51:55;;;;;;;0.32;0.32;;;;;;;;;;1043405;28;20028;-79
2024/03/13 02:52:26;;;;;;;0.80;0.45;;;;;;;;;;1044191;28;20107;-83
2024/03/13 02:52:56;;;;;;;0.10;0.10;;;;;;;;;;1043540;28;20352;-80
2024/03/13 02:53:27;;;;;;;1.40;1.30;;;;;;;;;;1042938;28;20021;-82
2024/03/13 02:55:18;;;;;;;0.80;0.63;;;;;;;;;;1107945;22;20973;-81
2024/03/13 02:55:49;;;;;;;2.42;0.95;;;;;;;;;;1133860;22;20103;-79
2024/03/13 02:56:20;;;;;;;0.95;0.95;;;;;;;;;;1039833;28;20037;-81
2024/03/13 02:56:50;;;;;;;0.50;0.50;;;;;;;;;;1038731;28;20048;-80
2024/03/13 02:57:21;;;;;;;0.15;0.15;;;;;;;;;;1037723;28;20033;-82
2024/03/13 02:57:53;;;;;;;1.17;0.38;;;;;;;;;;1038644;28;20037;-80
2024/03/13 02:58:23;;;;;;;0.50;0.50;;;;;;;;;;1037654;28;20033;-82
2024/03/13 02:58:56;;;;;;;0.50;0.50;;;;;;;;;;1036267;28;20029;-81
2024/03/13 03:02:07;;;;;;;;;;;;;;;;;;1053109;23;20698;-84
2024/03/13 03:02:40;;;;;;;0.10;0.10;;;;;;;;;;1036838;28;20314;-81
2024/03/13 03:03:13;;;;;;;1.40;1.27;;;;;;;;;;1034657;28;20025;-83
2024/03/13 03:03:44;;;;;;;0.20;0.20;;;;;;;;;;1034384;28;20080;-79
2024/03/13 03:04:18;;;;;;;0.20;0.20;;;;;;;;;;1034908;28;20034;-81
2024/03/13 03:04:48;;;;;;;0.10;0.10;;;;;;;;;;1036484;28;20033;-81
2024/03/13 03:05:21;;;;;;;0.22;0.22;;;;;;;;;;1037613;28;20465;-81
2024/03/13 03:05:51;;;;;;;0.52;0.52;;;;;;;;;;1038713;28;20040;-82
2024/03/13 03:06:22;;;;;;;2.13;0.73;;;;;;;;;;1039420;28;20117;-81
2024/03/13 03:06:53;;;;;;;0.80;0.77;;;;;;;;;;1034807;28;20041;-81
2024/03/13 03:07:24;;;;;;;0.85;0.70;;;;;;;;;;1035097;28;20029;-81
2024/03/13 03:07:56;;;;;;;0.57;0.57;;;;;;;;;;1043241;23;20374;-78
2024/03/13 03:08:26;;;;;;;0.15;0.15;;;;;;;;;;1036486;28;20455;-76
2024/03/13 03:08:57;;;;;;;1.45;0.77;;;;;;;;;;1032565;28;20030;-78
2024/03/13 03:09:28;;;;;;;0.45;0.45;;;;;;;;;;1030743;28;20061;-75
2024/03/13 03:09:59;;;;;;;1.35;0.93;;;;;;;;;;1031065;28;20576;-76
2024/03/13 03:10:32;;;;;;;0.52;0.52;;;;;;;;;;1048707;23;20961;-79
2024/03/13 03:11:05;;;;;;;0.47;0.47;;;;;;;;;;1044424;28;20475;-79
2024/03/13 03:11:36;;;;;;;1.85;1.00;;;;;;;;;;1045754;28;20028;-80
2024/03/13 03:12:09;;;;;;;5.03;1.50;;;;;;;;;;1051362;22;20052;-77
2024/03/13 03:12:43;;;;;;;0.30;0.30;;;;;;;;;;1027839;28;20143;-79
2024/03/13 03:13:14;;;;;;;0.20;0.20;;;;;;;;;;1049344;28;20024;-80
2024/03/13 03:13:46;;;;;;;3.58;2.17;;;;;;;;;;1048840;28;20558;-78
2024/03/13 03:14:17;;;;;;;0.10;0.10;;;;;;;;;;1042538;28;20127;-79
2024/03/13 03:14:48;;;;;;;0.20;0.20;;;;;;;;;;1043476;28;20468;-79
2024/03/13 03:15:21;;;;;;;0.95;0.95;;;;;;;;;;1045092;28;20047;-79
2024/03/13 03:15:52;;;;;;;1.20;1.10;;;;;;;;;;1042018;28;20033;-79
2024/03/13 03:16:24;;;;;;;1.90;1.75;;;;;;;;;;1045903;28;20687;-77
2024/03/13 03:16:54;;;;;;;2.10;0.75;;;;;;;;;;1045815;28;20693;-76
2024/03/13 03:17:25;;;;;;;4.05;1.65;;;;;;;;;;1042393;28;20019;-77
2024/03/13 03:17:57;;;;;;;5.50;1.25;;;;;;;;;;1045522;28;20623;-77
2024/03/13 03:18:27;;;;;;;1.45;1.35;;;;;;;;;;1044526;28;20035;-77
2024/03/13 03:18:59;;;;;;;0.50;0.50;;;;;;;;;;1048032;28;20709;-78
2024/03/13 03:19:34;;;;;;;1.33;1.23;;;;;;;;;;1048017;28;20054;-78
2024/03/13 03:20:06;;;;;;;0.63;0.63;;;;;;;;;;1049711;28;20595;-77
2024/03/13 03:20:36;;;;;;;0.45;0.45;;;;;;;;;;1048895;28;20047;-80
2024/03/13 03:21:08;;;;;;;0.50;0.40;;;;;;;;;;1049414;28;20056;-77
2024/03/13 03:21:39;;;;;;;1.38;0.55;;;;;;;;;;1053299;22;20110;-79
2024/03/13 03:22:10;;;;;;;0.15;0.15;;;;;;;;;;1042549;28;20024;-79
2024/03/13 03:22:41;;;;;;;0.88;0.43;;;;;;;;;;1040375;28;20076;-79
2024/03/13 03:23:11;;;;;;;0.90;0.82;;;;;;;;;;1043203;28;20557;-80
2024/03/13 03:23:45;;;;;;;2.97;1.08;;;;;;;;;;1040431;28;20478;-77
2024/03/13 03:24:16;;;;;;;0.65;0.65;;;;;;;;;;1043605;28;20455;-78
2024/03/13 03:24:55;;;;;;;0.38;0.38;;;;;;;;;;1043716;28;20026;-78
2024/03/13 03:25:28;;;;;;;1.52;1.42;;;;;;;;;;1046706;28;20059;-78
2024/03/13 03:25:58;;;;;;;0.13;0.13;;;;;;;;;;1044059;28;20033;-78
2024/03/13 03:26:29;;;;;;;0.22;0.22;;;;;;;;;;1045776;28;20123;-78
2024/03/13 03:27:00;;;;;;;1.23;1.17;;;;;;;;;;1042311;28;20132;-76
2024/03/13 03:27:30;;;;;;;0.35;0.35;;;;;;;;;;1044126;28;20027;-77
2024/03/13 03:28:01;;;;;;;0.73;0.73;;;;;;;;;;1049331;28;20089;-81
2024/03/13 03:28:34;;;;;;;6.43;1.77;;;;;;;;;;1048298;28;20074;-77
2024/03/13 03:29:04;;;;;;;1.45;0.77;;;;;;;;;;1050268;28;20043;-78
2024/03/13 03:29:36;;;;;;;6.63;3.55;;;;;;;;;;1045501;28;20119;-77
2024/03/13 03:30:07;;;;;;;3.80;3.22;;;;;;;;;;1049791;28;20493;-78
2024/03/13 03:30:42;;;;;;;4.95;3.47;;;;;;;;;;1041000;28;20318;-77
2024/03/13 03:31:14;;;;;;;1.05;1.00;;;;;;;;;;1039345;28;20025;-78
2024/03/13 03:31:44;;;;;;;1.17;0.82;;;;;;;;;;1034489;28;20034;-77
2024/03/13 03:32:15;;;;;;;1.23;1.13;;;;;;;;;;1038352;28;20299;-78
2024/03/13 03:32:45;;;;;;;14.52;2.92;;;;;;;;;;1040655;28;20336;-79
2024/03/13 03:33:16;;;;;;;1.23;1.13;;;;;;;;;;1038852;28;20492;-77
2024/03/13 03:33:47;;;;;;;3.97;1.55;;;;;;;;;;1044508;28;20384;-78
2024/03/13 03:34:17;;;;;;;0.68;0.65;;;;;;;;;;1048243;28;20063;-78
2024/03/13 03:34:53;;;;;;;3.85;1.60;;;;;;;;;;1050787;28;20020;-78
2024/03/13 03:35:24;;;;;;;0.20;0.20;;;;;;;;;;1051324;28;20023;-79
2024/03/13 03:35:55;;;;;;;0.68;0.60;;;;;;;;;;1044829;28;20498;-80
2024/03/13 03:36:27;;;;;;;2.45;0.45;;;;;;;;;;1043760;28;20001;-78
2024/03/13 03:36:57;;;;;;;0.35;0.35;;;;;;;;;;1042200;28;20072;-80
2024/03/13 03:37:28;;;;;;;0.60;0.50;;;;;;;;;;1043811;28;20039;-78
2024/03/13 03:37:59;;;;;;;3.05;2.63;;;;;;;;;;1043428;28;20020;-78
2024/03/13 03:38:32;;;;;;;1.67;1.48;;;;;;;;;;1039300;28;20097;-78
2024/03/13 03:39:05;;;;;;;0.15;0.15;;;;;;;;;;1045675;28;20031;-77
2024/03/13 03:39:38;;;;;;;0.50;0.50;;;;;;;;;;1042769;28;20499;-77
2024/03/13 03:40:13;;;;;;;0.50;0.50;;;;;;;;;;1043861;28;20079;-77
2024/03/13 03:40:46;;;;;;;0.38;0.38;;;;;;;;;;1044377;28;20448;-76
2024/03/13 03:41:16;;;;;;;0.30;0.30;;;;;;;;;;1046083;28;20017;-76
2024/03/13 03:41:51;;;;;;;0.20;0.20;;;;;;;;;;1045469;28;20096;-79
2024/03/13 03:42:27;;;;;;;0.30;0.30;;;;;;;;;;1050375;28;21523;-79
2024/03/13 03:42:58;;;;;;;0.98;0.68;;;;;;;;;;1048381;28;20590;-77
2024/03/13 03:43:30;;;;;;;0.30;0.30;;;;;;;;;;1050909;28;20058;-76
2024/03/13 03:44:01;;;;;;;2.55;1.95;;;;;;;;;;1051334;28;20024;-78
2024/03/13 03:44:32;;;;;;;1.65;1.08;;;;;;;;;;1048266;28;20020;-78
2024/03/13 03:45:03;;;;;;;1.38;1.10;;;;;;;;;;1046655;28;20023;-78
2024/03/13 03:45:37;;;;;;;0.40;0.40;;;;;;;;;;1050751;28;20070;-79
2024/03/13 03:46:07;;;;;;;0.10;0.10;;;;;;;;;;1046759;28;20025;-79
2024/03/13 03:46:39;;;;;;;1.88;1.40;;;;;;;;;;1048061;28;20107;-79
2024/03/13 03:47:11;;;;;;;0.30;0.30;;;;;;;;;;1046628;28;20032;-79
2024/03/13 03:47:41;;;;;;;1.35;0.43;;;;;;;;;;1046229;28;20021;-79
2024/03/13 03:48:15;;;;;;;1.75;1.05;;;;;;;;;;1046019;28;20028;-80
2024/03/13 03:48:46;;;;;;;0.20;0.20;;;;;;;;;;1040087;28;20422;-80
2024/03/13 03:49:18;;;;;;;2.08;1.45;;;;;;;;;;1044153;28;20048;-79
2024/03/13 03:49:48;;;;;;;0.38;0.38;;;;;;;;;;1044485;28;20032;-79
2024/03/13 03:50:20;;;;;;;0.52;0.38;;;;;;;;;;1047658;28;20365;-79
2024/03/13 03:50:57;;;;;;;0.22;0.22;;;;;;;;;;1049194;28;20060;-79
2024/03/13 03:51:27;;;;;;;2.60;0.85;;;;;;;;;;1048248;28;20031;-78
2024/03/13 03:51:58;;;;;;;0.63;0.50;;;;;;;;;;1050395;28;20020;-79
2024/03/13 03:52:29;;;;;;;11.95;5.05;;;;;;;;;;1049355;28;20035;-80
2024/03/13 03:52:59;;;;;;;2.03;1.08;;;;;;;;;;1046983;28;20020;-80
2024/03/13 03:53:30;;;;;;;0.90;0.55;;;;;;;;;;1049291;28;20020;-78
2024/03/13 03:54:01;;;;;;;9.20;1.23;;;;;;;;;;1048829;28;20016;-81
2024/03/13 03:54:32;;;;;;;2.15;0.70;;;;;;;;;;1045752;28;20017;-80
2024/03/13 03:55:03;;;;;;;0.93;0.93;;;;;;;;;;1046997;28;20020;-78
2024/03/13 03:55:36;;;;;;;1.42;0.75;;;;;;;;;;1045275;28;20731;-78
2024/03/13 03:56:07;;;;;;;0.30;0.30;;;;;;;;;;1046293;28;20131;-79
2024/03/13 03:56:38;;;;;;;1.05;0.88;;;;;;;;;;1043405;28;20153;-81
2024/03/13 03:57:10;;;;;;;0.52;0.52;;;;;;;;;;1041563;28;20029;-79
2024/03/13 03:57:42;;;;;;;0.20;0.20;;;;;;;;;;1043206;28;20025;-80
2024/03/13 03:58:14;;;;;;;0.50;0.35;;;;;;;;;;1040996;28;20041;-81
2024/03/13 03:58:45;;;;;;;0.57;0.57;;;;;;;;;;1046495;23;20037;-75
2024/03/13 03:59:16;;;;;;;1.30;1.20;;;;;;;;;;1041210;28;20040;-74
2024/03/13 03:59:47;;;;;;;1.30;1.15;;;;;;;;;;1024246;28;20114;-74
2024/03/13 04:00:22;;;;;;;0.32;0.32;;;;;;;;;;1038416;28;20018;-74
2024/03/13 04:00:53;;;;;;;4.10;1.88;;;;;;;;;;1040547;28;20033;-75
2024/03/13 04:01:24;;;;;;;0.50;0.50;;;;;;;;;;1038415;28;20017;-75
2024/03/13 04:01:55;;;;;;;11.60;1.85;;;;;;;;;;1038102;28;20100;-74
2024/03/13 04:02:27;;;;;;;2.17;1.60;;;;;;;;;;1040881;28;20045;-75
2024/03/13 04:02:58;;;;;;;0.30;0.30;;;;;;;;;;1043402;28;20021;-75
2024/03/13 04:03:29;;;;;;;2.08;1.45;;;;;;;;;;1042402;28;20021;-75
2024/03/13 04:04:00;;;;;;;2.60;2.40;;;;;;;;;;1042453;28;20028;-75
2024/03/13 04:04:30;;;;;;;4.75;2.05;;;;;;;;;;1038037;28;20021;-75
2024/03/13 04:05:01;;;;;;;1.60;0.82;;;;;;;;;;1040051;28;20059;-76
2024/03/13 04:05:31;;;;;;;1.45;0.55;;;;;;;;;;1041030;28;20048;-75
2024/03/13 04:06:03;;;;;;;15.43;2.50;;;;;;;;;;1038304;28;20500;-75
2024/03/13 04:06:34;;;;;;;2.15;0.38;;;;;;;;;;1041543;28;20040;-74
2024/03/13 04:07:06;;;;;;;13.38;2.45;;;;;;;;;;1037843;28;20494;-76
2024/03/13 04:07:37;;;;;;;1.75;0.90;;;;;;;;;;1038182;28;20025;-77
2024/03/13 04:08:08;;;;;;;2.75;1.17;;;;;;;;;;1042679;28;20088;-75
2024/03/13 04:08:39;;;;;;;2.22;1.05;;;;;;;;;;1038111;28;20029;-75
2024/03/13 04:09:16;;;;;;;10.02;2.45;;;;;;;;;;1040172;28;20025;-75
2024/03/13 04:09:47;;;;;;;2.35;1.63;;;;;;;;;;1039421;28;20060;-76
2024/03/13 04:10:20;;;;;;;5.68;1.50;;;;;;;;;;1039857;28;20021;-75
2024/03/13 04:10:50;;;;;;;22.67;2.22;;;;;;;;;;1039790;28;20407;-76
2024/03/13 04:11:21;;;;;;;3.33;2.05;;;;;;;;;;1039215;28;20072;-74
2024/03/13 04:11:54;;;;;;;10.55;3.53;;;;;;;;;;1039323;28;20155;-74
2024/03/13 04:12:24;;;;;;;1.45;1.35;;;;;;;;;;1038861;28;20025;-74
2024/03/13 04:12:55;;;;;;;8.45;2.15;;;;;;;;;;1040900;28;20033;-75
2024/03/13 04:13:25;;;;;;;0.45;0.45;;;;;;;;;;1038434;28;20133;-74
2024/03/13 04:13:56;;;;;;;3.38;1.00;;;;;;;;;;1040577;28;20029;-74
2024/03/13 04:14:27;;;;;;;0.30;0.30;;;;;;;;;;1038688;28;20029;-74
2024/03/13 04:14:57;;;;;;;1.05;0.93;;;;;;;;;;1041022;28;20111;-75
2024/03/13 04:15:30;;;;;;;0.52;0.45;;;;;;;;;;1038556;28;20353;-74
2024/03/13 04:16:04;;;;;;;3.20;1.60;;;;;;;;;;1041120;28;20085;-76
2024/03/13 04:16:35;;;;;;;0.57;0.57;;;;;;;;;;1041988;28;20410;-75
2024/03/13 04:17:09;;;;;;;2.33;0.73;;;;;;;;;;1042477;28;20082;-74
2024/03/13 04:17:40;;;;;;;1.73;0.63;;;;;;;;;;1042392;28;20502;-74
2024/03/13 04:18:12;;;;;;;6.38;2.97;;;;;;;;;;1041658;28;20025;-75
2024/03/13 04:18:43;;;;;;;2.47;1.05;;;;;;;;;;1042756;28;20552;-76
2024/03/13 04:19:14;;;;;;;2.08;1.95;;;;;;;;;;1040245;28;20013;-75
2024/03/13 04:19:44;;;;;;;1.23;0.63;;;;;;;;;;1039644;28;20804;-75
2024/03/13 04:20:21;;;;;;;11.15;2.00;;;;;;;;;;1038002;28;20041;-74
2024/03/13 04:20:53;;;;;;;1.90;0.93;;;;;;;;;;1038385;28;20037;-74
2024/03/13 04:21:24;;;;;;;2.97;2.13;;;;;;;;;;1041119;28;20453;-75
2024/03/13 04:21:54;;;;;;;0.80;0.63;;;;;;;;;;1038833;28;20025;-75
2024/03/13 04:22:26;;;;;;;6.55;2.88;;;;;;;;;;1037473;28;20083;-75
2024/03/13 04:22:57;;;;;;;1.52;1.42;;;;;;;;;;1030554;28;20735;-74
2024/03/13 04:23:29;;;;;;;0.63;0.63;;;;;;;;;;1029235;28;20493;-76
2024/03/13 04:24:00;;;;;;;1.75;1.60;;;;;;;;;;1037651;28;20018;-76
2024/03/13 04:24:31;;;;;;;1.75;1.17;;;;;;;;;;1034391;28;20029;-73
2024/03/13 04:25:04;;;;;;;0.35;0.35;;;;;;;;;;1031357;28;20057;-74
2024/03/13 04:25:38;;;;;;;2.70;1.77;;;;;;;;;;1030714;28;20029;-74
2024/03/13 04:26:09;;;;;;;5.63;2.10;;;;;;;;;;1034217;28;20036;-74
2024/03/13 04:26:40;;;;;;;5.65;2.25;;;;;;;;;;1038072;28;20061;-74
2024/03/13 04:27:11;;;;;;;3.35;1.45;;;;;;;;;;1037538;28;20024;-76
2024/03/13 04:27:41;;;;;;;3.80;1.42;;;;;;;;;;1038906;28;20029;-72
2024/03/13 04:28:12;;;;;;;4.63;2.05;;;;;;;;;;1041137;28;20060;-74
2024/03/13 04:28:45;;;;;;;4.10;2.72;;;;;;;;;;1041394;28;20025;-74
2024/03/13 04:29:16;;;;;;;11.20;3.17;;;;;;;;;;1043385;28;20025;-74
2024/03/13 04:29:46;;;;;;;5.15;3.20;;;;;;;;;;1040502;28;20029;-75
2024/03/13 04:30:19;;;;;;;6.07;1.52;;;;;;;;;;1037203;28;20083;-74
2024/03/13 04:30:50;;;;;;;1.08;0.93;;;;;;;;;;1039854;28;20028;-73
2024/03/13 04:31:20;;;;;;;2.88;1.90;;;;;;;;;;1038360;28;20028;-76
2024/03/13 04:31:52;;;;;;;2.75;1.38;;;;;;;;;;1033957;28;20026;-75
2024/03/13 04:32:22;;;;;;;2.78;1.73;;;;;;;;;;1039913;28;20147;-77
2024/03/13 04:32:54;;;;;;;2.35;1.10;;;;;;;;;;1040657;28;20078;-75
2024/03/13 04:33:25;;;;;;;1.95;1.50;;;;;;;;;;1038148;28;20087;-73
2024/03/13 04:33:55;;;;;;;2.72;1.95;;;;;;;;;;1033751;28;20140;-74
2024/03/13 04:34:26;;;;;;;1.70;1.35;;;;;;;;;;1031606;28;20120;-73
2024/03/13 04:35:00;;;;;;;2.03;1.60;;;;;;;;;;1034194;28;20034;-75
2024/03/13 04:35:30;;;;;;;3.30;1.35;;;;;;;;;;1033861;28;20141;-75
2024/03/13 04:36:04;;;;;;;1.15;1.02;;;;;;;;;;1037556;28;20029;-74
2024/03/13 04:36:38;;;;;;;6.57;4.50;;;;;;;;;;1038888;28;20444;-74
2024/03/13 04:37:12;;;;;;;3.03;1.95;;;;;;;;;;1038582;28;20115;-75
2024/03/13 04:37:44;;;;;;;0.60;0.55;;;;;;;;;;1037464;28;20106;-74
2024/03/13 04:38:15;;;;;;;5.68;3.30;;;;;;;;;;1037955;28;20167;-75
2024/03/13 04:38:50;;;;;;;14.18;4.20;;;;;;;;;;1041491;28;20037;-75
2024/03/13 04:39:21;;;;;;;2.50;1.75;;;;;;;;;;1042092;28;20056;-73
2024/03/13 04:39:52;;;;;;;5.93;2.40;;;;;;;;;;1040310;28;20477;-75
2024/03/13 04:40:22;;;;;;;2.47;1.73;;;;;;;;;;1041445;28;20475;-74
2024/03/13 04:40:53;;;;;;;4.85;3.33;;;;;;;;;;1039295;28;20035;-74
2024/03/13 04:41:26;;;;;;;7.03;2.25;;;;;;;;;;1031437;28;20535;-73
2024/03/13 04:41:57;;;;;;;3.55;1.63;;;;;;;;;;1029918;28;20413;-72
2024/03/13 04:42:28;;;;;;;6.75;2.95;;;;;;;;;;1036286;28;20029;-73
2024/03/13 04:43:00;;;;;;;5.68;2.15;;;;;;;;;;1033413;28;20128;-73
2024/03/13 04:43:31;;;;;;;5.47;3.10;;;;;;;;;;1034283;28;20572;-73
2024/03/13 04:44:04;;;;;;;3.20;2.10;;;;;;;;;;1035457;28;20091;-73
2024/03/13 04:44:36;;;;;;;3.22;2.22;;;;;;;;;;1034994;28;20521;-73
2024/03/13 04:45:06;;;;;;;2.50;2.10;;;;;;;;;;1030368;28;20026;-73
2024/03/13 04:45:37;;;;;;;6.30;2.80;;;;;;;;;;1036957;28;20073;-74
2024/03/13 04:46:13;;;;;;;1.80;1.70;;;;;;;;;;1037868;28;20542;-73
2024/03/13 04:46:44;;;;;;;11.02;2.22;;;;;;;;;;1017898;28;20064;-73
2024/03/13 04:47:16;;;;;;;0.70;0.70;;;;;;;;;;1037237;28;20095;-73
2024/03/13 04:47:46;;;;;;;1.55;1.42;;;;;;;;;;1033034;28;20029;-73
2024/03/13 04:48:18;;;;;;;1.48;1.38;;;;;;;;;;1034986;28;20206;-74
2024/03/13 04:48:48;;;;;;;2.00;1.40;;;;;;;;;;1040610;28;20032;-72
2024/03/13 04:49:19;;;;;;;3.67;1.95;;;;;;;;;;1031153;28;20435;-73
2024/03/13 04:49:49;;;;;;;2.28;2.00;;;;;;;;;;1034147;28;20499;-73
2024/03/13 04:50:19;;;;;;;3.47;1.73;;;;;;;;;;1034851;28;20397;-74
2024/03/13 04:50:50;;;;;;;4.20;2.55;;;;;;;;;;1035136;28;20507;-75
2024/03/13 04:51:22;;;;;;;0.57;0.57;;;;;;;;;;1039819;28;20087;-74
2024/03/13 04:51:53;;;;;;;4.38;2.72;;;;;;;;;;1037285;28;20140;-73
2024/03/13 04:52:26;;;;;;;5.55;2.05;;;;;;;;;;1038596;28;20032;-74
2024/03/13 04:52:57;;;;;;;15.45;2.22;;;;;;;;;;1035231;28;20037;-75
2024/03/13 04:53:28;;;;;;;0.70;0.70;;;;;;;;;;1035789;28;20033;-74
2024/03/13 04:53:58;;;;;;;5.07;3.22;;;;;;;;;;1041548;28;20033;-73
2024/03/13 04:54:29;;;;;;;3.63;1.58;;;;;;;;;;1042231;28;20025;-73
2024/03/13 04:55:00;;;;;;;7.85;2.45;;;;;;;;;;1039542;28;21020;-74
2024/03/13 04:55:30;;;;;;;1.70;1.60;;;;;;;;;;1044259;28;20081;-73
2024/03/13 04:56:01;;;;;;;1.98;1.73;;;;;;;;;;1039147;28;20478;-74
2024/03/13 04:56:32;;;;;;;4.75;4.05;;;;;;;;;;1038372;28;20025;-73
2024/03/13 04:57:03;;;;;;;3.25;2.17;;;;;;;;;;1043230;28;20028;-72
2024/03/13 04:57:34;;;;;;;5.68;2.42;;;;;;;;;;1040561;28;20733;-74
2024/03/13 04:58:06;;;;;;;5.05;1.90;;;;;;;;;;1040253;28;20409;-74
2024/03/13 04:58:37;;;;;;;4.80;1.48;;;;;;;;;;1039151;28;20167;-73
2024/03/13 04:59:08;;;;;;;0.70;0.45;;;;;;;;;;1037088;28;20032;-71
2024/03/13 04:59:38;;;;;;;6.10;2.28;;;;;;;;;;1035006;28;20044;-72
2024/03/13 05:00:09;;;;;;;7.55;2.42;;;;;;;;;;1036791;28;20124;-74
2024/03/13 05:00:40;;;;;;;5.78;3.15;;;;;;;;;;1036922;28;20074;-74
2024/03/13 05:01:17;;;;;;;2.00;0.88;;;;;;;;;;1038818;28;20701;-75
2024/03/13 05:01:49;;;;;;;1.60;1.50;;;;;;;;;;1040222;28;20017;-73
2024/03/13 05:02:19;;;;;;;3.38;2.75;;;;;;;;;;1038599;28;20029;-72
2024/03/13 05:02:51;;;;;;;3.05;1.15;;;;;;;;;;1041727;28;20411;-75
2024/03/13 05:03:21;;;;;;;7.10;2.42;;;;;;;;;;1041332;28;21040;-74
2024/03/13 05:03:52;;;;;;;1.58;1.23;;;;;;;;;;1036975;28;20040;-74
2024/03/13 05:04:22;;;;;;;3.72;2.33;;;;;;;;;;1035747;28;20029;-73
2024/03/13 05:04:54;;;;;;;9.93;3.05;;;;;;;;;;1037875;28;20626;-74
2024/03/13 05:05:25;;;;;;;1.52;1.42;;;;;;;;;;1032095;28;20025;-73
2024/03/13 05:05:56;;;;;;;2.22;1.42;;;;;;;;;;1029570;28;20034;-73
2024/03/13 05:06:26;;;;;;;4.70;1.73;;;;;;;;;;1031950;28;20117;-72
2024/03/13 05:07:01;;;;;;;1.67;0.88;;;;;;;;;;1030117;28;20594;-74
2024/03/13 05:07:34;;;;;;;3.63;0.90;;;;;;;;;;1035329;28;20411;-74
2024/03/13 05:08:05;;;;;;;0.73;0.73;;;;;;;;;;1044838;28;20029;-74
2024/03/13 05:08:36;;;;;;;21.20;2.15;;;;;;;;;;1043084;28;20100;-73
2024/03/13 05:09:10;;;;;;;3.08;2.88;;;;;;;;;;1040063;28;20091;-73
2024/03/13 05:09:41;;;;;;;3.25;3.03;;;;;;;;;;1036595;28;20123;-74
2024/03/13 05:10:16;;;;;;;6.05;3.17;;;;;;;;;;1018329;28;20025;-73
2024/03/13 05:10:47;;;;;;;3.33;3.03;;;;;;;;;;1031285;28;20463;-75
2024/03/13 05:11:18;;;;;;;2.72;1.85;;;;;;;;;;1036455;28;20269;-72
2024/03/13 05:11:49;;;;;;;1.95;0.80;;;;;;;;;;1040702;28;21656;-75